Time;durP1;ratioP1;P1;durP2;ratioP2;P2;SDS_P1;SDS_P2;PMS_P1;PMS_P2;Temp;Humidity;BMP_temperature;BMP_pressure;BME280_temperature;BME280_humidity;BME280_pressure;Samples;Min_cycle;Max_cycle;Signal;HPM_P1;HPM_P2
2023/10/30 00:00:08;;;;;;;2.43;1.60;;;29.30;24.40;;;;;;5053096;28;20199;-68
2023/10/30 00:02:39;;;;;;;2.57;1.50;;;29.30;25.20;;;;;;5053222;28;20195;-67
2023/10/30 00:05:07;;;;;;;3.67;1.23;;;29.10;25.80;;;;;;5047350;28;20508;-67
2023/10/30 00:07:34;;;;;;;4.77;1.80;;;29.30;25.20;;;;;;5052193;28;20188;-68
2023/10/30 00:10:02;;;;;;;3.97;2.40;;;29.30;25.70;;;;;;5044792;28;20211;-68
2023/10/30 00:12:29;;;;;;;6.27;1.90;;;29.60;25.50;;;;;;5053372;28;20192;-68
2023/10/30 00:14:57;;;;;;;4.47;1.60;;;29.50;30.50;;;;;;5053776;28;20191;-68
2023/10/30 00:17:24;;;;;;;6.93;1.90;;;29.60;30.70;;;;;;5052157;28;20179;-71
2023/10/30 00:19:51;;;;;;;3.97;1.80;;;29.70;28.60;;;;;;5053191;28;20188;-70
2023/10/30 00:22:18;;;;;;;6.60;2.40;;;29.80;28.80;;;;;;5052346;28;20184;-68
2023/10/30 00:24:46;;;;;;;4.83;2.27;;;29.80;31.70;;;;;;5055176;28;20692;-68
2023/10/30 00:27:16;;;;;;;5.13;1.83;;;29.90;30.10;;;;;;5052278;28;20191;-66
2023/10/30 00:29:44;;;;;;;6.57;1.53;;;29.80;27.40;;;;;;5052648;28;20188;-67
2023/10/30 00:32:11;;;;;;;3.87;1.70;;;29.90;26.50;;;;;;5059857;28;20183;-66
2023/10/30 00:34:39;;;;;;;5.53;1.80;;;30.00;25.30;;;;;;5053643;28;20202;-67
2023/10/30 00:37:07;;;;;;;13.63;3.17;;;30.30;28.00;;;;;;5053342;28;20308;-67
2023/10/30 00:39:34;;;;;;;5.97;1.50;;;30.20;27.50;;;;;;5052282;28;20615;-67
2023/10/30 00:42:01;;;;;;;5.60;1.90;;;30.40;26.10;;;;;;5059775;28;20190;-68
2023/10/30 00:44:29;;;;;;;2.03;1.57;;;30.50;24.20;;;;;;5052925;28;20187;-68
2023/10/30 00:46:56;;;;;;;3.97;1.63;;;30.40;24.10;;;;;;5053242;28;20188;-68
2023/10/30 00:49:23;;;;;;;3.33;1.50;;;30.60;24.60;;;;;;5053509;28;20263;-68
2023/10/30 00:51:51;;;;;;;4.67;1.50;;;30.80;24.40;;;;;;5054171;28;20194;-69
2023/10/30 00:54:18;;;;;;;2.90;1.73;;;30.80;23.50;;;;;;5055530;28;20195;-68
2023/10/30 00:56:47;;;;;;;2.60;1.60;;;30.90;23.30;;;;;;5058864;28;20229;-71
2023/10/30 00:59:15;;;;;;;3.90;1.40;;;31.00;23.00;;;;;;5057002;28;20211;-69
2023/10/30 01:01:42;;;;;;;3.40;1.43;;;31.10;21.00;;;;;;5050598;28;20551;-68
2023/10/30 01:04:09;;;;;;;3.60;1.83;;;31.20;21.00;;;;;;5056232;28;20187;-66
2023/10/30 01:06:37;;;;;;;4.13;1.90;;;31.30;20.00;;;;;;5050929;28;20205;-70
2023/10/30 01:09:04;;;;;;;4.80;1.97;;;31.30;20.40;;;;;;5055380;28;20245;-69
2023/10/30 01:11:31;;;;;;;2.30;1.50;;;31.30;20.60;;;;;;5054913;28;20215;-71
2023/10/30 01:13:59;;;;;;;4.30;1.60;;;30.80;21.00;;;;;;5052543;28;20184;-69
2023/10/30 01:16:26;;;;;;;4.37;1.63;;;31.00;20.80;;;;;;5055166;28;20583;-68
2023/10/30 01:18:53;;;;;;;10.73;2.60;;;31.30;21.30;;;;;;5052388;28;20646;-72
2023/10/30 01:21:20;;;;;;;3.37;1.80;;;31.30;21.20;;;;;;5053479;28;20626;-70
2023/10/30 01:23:48;;;;;;;3.23;1.93;;;31.40;21.50;;;;;;5050896;28;20745;-69
2023/10/30 01:26:15;;;;;;;1.87;1.50;;;31.50;21.70;;;;;;5044340;28;20219;-68
2023/10/30 01:28:42;;;;;;;5.20;2.00;;;31.30;21.40;;;;;;5051311;28;20184;-69
2023/10/30 01:31:10;;;;;;;4.00;1.73;;;31.30;21.40;;;;;;5052341;28;20176;-69
2023/10/30 01:33:37;;;;;;;2.38;1.73;;;31.40;22.00;;;;;;5054998;28;20176;-67
2023/10/30 01:36:05;;;;;;;4.43;1.80;;;31.80;21.70;;;;;;5051720;28;20661;-68
2023/10/30 01:38:32;;;;;;;2.35;1.50;;;31.80;21.00;;;;;;5051763;28;20226;-69
2023/10/30 01:40:59;;;;;;;3.88;1.95;;;32.00;20.70;;;;;;5050937;28;20235;-68
2023/10/30 01:43:31;;;;;;;3.17;1.35;;;32.30;20.70;;;;;;5052014;28;20577;-67
2023/10/30 01:45:59;;;;;;;3.45;1.60;;;32.20;19.90;;;;;;5049234;28;20208;-69
2023/10/30 01:48:30;;;;;;;2.83;1.90;;;31.90;20.70;;;;;;5052753;28;20180;-68
2023/10/30 01:50:59;;;;;;;4.47;1.95;;;31.90;21.20;;;;;;5049480;28;20188;-71
2023/10/30 01:53:28;;;;;;;7.97;1.77;;;32.40;20.80;;;;;;5051929;28;20529;-69
2023/10/30 01:55:57;;;;;;;4.72;2.08;;;32.80;19.90;;;;;;5049784;28;20195;-69
2023/10/30 01:58:25;;;;;;;4.53;1.77;;;32.70;20.10;;;;;;5051608;28;20221;-69
2023/10/30 02:00:53;;;;;;;2.78;2.00;;;32.60;19.70;;;;;;5052311;28;20183;-69
2023/10/30 02:03:20;;;;;;;9.10;2.53;;;33.10;19.40;;;;;;5050902;28;20253;-70
2023/10/30 02:05:48;;;;;;;7.38;2.80;;;33.40;25.00;;;;;;5053164;28;20227;-70
2023/10/30 02:08:16;;;;;;;9.35;2.85;;;33.30;29.80;;;;;;5054464;28;20187;-68
2023/10/30 02:10:44;;;;;;;10.23;2.97;;;33.20;31.20;;;;;;5070194;28;20254;-70
2023/10/30 02:13:12;;;;;;;13.80;3.42;;;33.30;30.00;;;;;;5058487;28;20290;-67
2023/10/30 02:15:40;;;;;;;8.27;3.10;;;33.10;31.10;;;;;;5052003;28;20176;-69
2023/10/30 02:18:07;;;;;;;6.15;2.53;;;33.30;30.30;;;;;;5050495;28;20184;-68
2023/10/30 02:20:34;;;;;;;11.30;3.15;;;33.50;28.90;;;;;;5050948;28;20179;-67
2023/10/30 02:23:02;;;;;;;10.63;3.00;;;33.20;30.60;;;;;;5051905;28;20208;-70
2023/10/30 02:25:35;;;;;;;7.68;3.30;;;33.10;30.90;;;;;;5052267;28;20215;-68
2023/10/30 02:28:02;;;;;;;10.18;3.45;;;33.20;30.90;;;;;;5052294;28;20196;-70
2023/10/30 02:30:30;;;;;;;10.90;3.63;;;32.90;32.50;;;;;;5052021;28;20186;-70
2023/10/30 02:32:57;;;;;;;11.48;2.97;;;32.40;34.40;;;;;;5052311;28;20225;-69
2023/10/30 02:35:25;;;;;;;12.07;2.97;;;32.20;34.80;;;;;;5052119;28;20704;-67
2023/10/30 02:37:52;;;;;;;7.57;2.85;;;32.10;35.20;;;;;;5038351;28;20277;-70
2023/10/30 02:40:23;;;;;;;5.88;2.58;;;32.50;32.90;;;;;;5050731;28;20184;-68
2023/10/30 02:42:50;;;;;;;9.80;3.50;;;32.50;32.80;;;;;;5050400;28;20183;-68
2023/10/30 02:45:17;;;;;;;5.55;2.47;;;32.80;32.60;;;;;;5049159;28;20238;-69
2023/10/30 02:47:45;;;;;;;10.80;3.40;;;32.60;32.70;;;;;;5053718;28;20206;-67
2023/10/30 02:50:12;;;;;;;7.60;3.38;;;32.90;32.50;;;;;;5054893;28;20226;-68
2023/10/30 02:52:40;;;;;;;11.65;3.20;;;33.10;33.10;;;;;;5050067;28;20172;-69
2023/10/30 02:55:07;;;;;;;13.18;3.25;;;33.30;32.80;;;;;;5045215;28;20180;-68
2023/10/30 02:57:35;;;;;;;8.90;2.65;;;33.10;32.80;;;;;;5053662;28;20187;-67
2023/10/30 03:00:02;;;;;;;5.88;2.65;;;33.20;32.70;;;;;;5056270;28;20615;-67
2023/10/30 03:02:30;;;;;;;11.13;3.15;;;33.10;33.30;;;;;;5052882;28;20184;-67
2023/10/30 03:04:57;;;;;;;10.48;3.63;;;32.80;32.60;;;;;;5050032;28;20216;-67
2023/10/30 03:07:25;;;;;;;11.00;2.70;;;32.80;33.20;;;;;;5049902;28;20180;-67
2023/10/30 03:09:52;;;;;;;9.30;3.03;;;32.70;31.80;;;;;;5050827;28;20522;-67
2023/10/30 03:12:19;;;;;;;8.88;3.10;;;32.90;32.30;;;;;;5053545;28;20186;-67
2023/10/30 03:14:47;;;;;;;10.02;2.75;;;33.00;31.70;;;;;;5079713;28;20185;-67
2023/10/30 03:17:14;;;;;;;6.95;2.67;;;32.80;31.40;;;;;;5051742;28;20687;-66
2023/10/30 03:19:42;;;;;;;10.35;2.97;;;33.30;32.20;;;;;;5047753;28;20183;-68
2023/10/30 03:22:09;;;;;;;14.65;3.63;;;33.50;31.40;;;;;;5052553;28;20650;-66
2023/10/30 03:24:36;;;;;;;11.77;3.45;;;33.20;32.30;;;;;;5053527;28;20195;-67
2023/10/30 03:27:04;;;;;;;9.98;3.28;;;33.10;32.40;;;;;;5052923;28;20194;-67
2023/10/30 03:29:36;;;;;;;5.53;2.67;;;33.40;31.70;;;;;;5051855;28;20268;-68
2023/10/30 03:32:03;;;;;;;8.38;3.03;;;33.40;31.00;;;;;;5051100;28;20246;-68
2023/10/30 03:34:31;;;;;;;6.47;3.05;;;33.50;30.50;;;;;;5051670;28;20176;-70
2023/10/30 03:36:58;;;;;;;11.48;3.67;;;33.40;32.10;;;;;;5053430;28;20277;-68
2023/10/30 03:39:32;;;;;;;7.50;3.15;;;33.30;32.60;;;;;;5050849;28;20200;-68
2023/10/30 03:41:59;;;;;;;8.63;2.90;;;33.20;31.60;;;;;;5050441;28;20614;-66
2023/10/30 03:44:27;;;;;;;11.23;3.88;;;33.30;31.30;;;;;;5052808;28;20180;-67
2023/10/30 03:46:55;;;;;;;10.88;3.40;;;32.90;30.60;;;;;;5049113;28;20250;-67
2023/10/30 03:49:23;;;;;;;9.73;3.75;;;32.70;29.90;;;;;;5046441;28;20238;-67
2023/10/30 03:51:51;;;;;;;7.03;3.03;;;32.60;30.80;;;;;;5045848;28;20202;-67
2023/10/30 03:54:19;;;;;;;10.00;4.07;;;32.30;31.40;;;;;;5051610;28;20171;-67
2023/10/30 03:56:46;;;;;;;10.80;3.25;;;31.20;34.00;;;;;;5049212;28;20211;-67
2023/10/30 03:59:15;;;;;;;10.35;3.67;;;31.40;33.30;;;;;;5046275;28;20187;-67
2023/10/30 04:01:42;;;;;;;7.43;3.35;;;31.10;35.00;;;;;;5045632;28;20202;-67
2023/10/30 04:04:10;;;;;;;11.05;3.35;;;30.80;35.80;;;;;;5045521;28;20637;-66
2023/10/30 04:06:38;;;;;;;13.77;3.60;;;30.60;36.20;;;;;;5045914;28;20567;-66
2023/10/30 04:09:06;;;;;;;8.13;3.10;;;30.10;37.10;;;;;;5048332;28;20208;-67
2023/10/30 04:11:34;;;;;;;11.80;3.10;;;30.00;37.40;;;;;;5047806;28;20187;-68
2023/10/30 04:14:01;;;;;;;8.13;3.20;;;29.80;37.80;;;;;;5047685;28;20263;-67
2023/10/30 04:16:29;;;;;;;10.77;3.63;;;29.60;39.50;;;;;;5045044;28;20188;-66
2023/10/30 04:18:57;;;;;;;13.85;3.47;;;29.50;40.30;;;;;;5049142;28;20188;-67
2023/10/30 04:21:24;;;;;;;11.50;3.37;;;29.40;40.80;;;;;;5050155;28;20631;-67
2023/10/30 04:23:52;;;;;;;8.63;3.30;;;29.40;39.60;;;;;;5046437;28;20230;-66
2023/10/30 04:26:19;;;;;;;7.87;2.87;;;29.40;38.90;;;;;;5049810;28;20205;-67
2023/10/30 04:28:47;;;;;;;14.70;3.37;;;29.60;37.50;;;;;;5048937;28;20176;-67
2023/10/30 04:31:14;;;;;;;11.27;3.50;;;29.60;37.70;;;;;;5045450;28;20180;-67
2023/10/30 04:33:42;;;;;;;15.40;3.87;;;29.50;38.80;;;;;;5053067;28;20672;-68
2023/10/30 04:36:09;;;;;;;9.77;3.80;;;29.20;40.50;;;;;;5053605;28;20629;-67
2023/10/30 04:38:37;;;;;;;10.93;3.10;;;29.00;41.00;;;;;;5052718;28;20252;-67
2023/10/30 04:41:05;;;;;;;9.80;3.60;;;29.10;41.00;;;;;;5051402;28;20232;-67
2023/10/30 04:43:37;;;;;;;12.30;3.87;;;29.20;40.60;;;;;;5050474;28;20183;-67
2023/10/30 04:46:04;;;;;;;15.63;4.00;;;29.30;40.40;;;;;;5052811;28;20318;-68
2023/10/30 04:48:32;;;;;;;18.37;4.20;;;30.00;38.90;;;;;;5052655;28;20196;-68
2023/10/30 04:51:00;;;;;;;12.38;3.83;;;30.90;37.10;;;;;;5048573;28;20637;-68
2023/10/30 04:53:30;;;;;;;14.18;3.80;;;31.40;36.90;;;;;;5051790;28;20295;-68
2023/10/30 04:55:59;;;;;;;11.20;3.22;;;31.10;37.20;;;;;;5064498;28;20182;-68
2023/10/30 04:58:26;;;;;;;13.70;3.47;;;30.80;36.70;;;;;;5063768;28;20525;-68
2023/10/30 05:00:54;;;;;;;11.38;3.72;;;30.80;38.00;;;;;;5056296;28;20213;-68
2023/10/30 05:03:21;;;;;;;12.43;4.00;;;31.20;37.60;;;;;;5061614;28;20609;-67
2023/10/30 05:05:48;;;;;;;16.92;3.55;;;31.40;37.60;;;;;;5065544;28;20272;-68
2023/10/30 05:08:17;;;;;;;14.68;4.00;;;32.10;34.40;;;;;;5067370;28;20654;-68
2023/10/30 05:10:45;;;;;;;10.15;3.95;;;32.40;34.30;;;;;;5064305;28;20658;-68
2023/10/30 05:13:12;;;;;;;8.32;2.88;;;33.10;31.80;;;;;;5051900;28;20270;-68
2023/10/30 05:15:39;;;;;;;10.18;2.88;;;33.40;31.70;;;;;;5046144;28;20759;-68
2023/10/30 05:18:06;;;;;;;10.88;3.05;;;33.90;30.60;;;;;;5059124;28;20233;-68
2023/10/30 05:20:34;;;;;;;16.45;3.65;;;33.20;32.00;;;;;;5060473;28;20190;-67
2023/10/30 05:23:01;;;;;;;9.00;3.30;;;32.70;32.50;;;;;;5053359;28;20194;-69
2023/10/30 05:25:28;;;;;;;11.15;2.95;;;32.50;33.00;;;;;;5053008;28;20280;-69
2023/10/30 05:27:57;;;;;;;10.20;3.40;;;32.00;33.30;;;;;;5052454;28;20273;-68
2023/10/30 05:30:24;;;;;;;8.43;3.13;;;32.30;33.00;;;;;;5055683;28;20203;-68
2023/10/30 05:32:51;;;;;;;9.88;3.25;;;32.00;33.30;;;;;;5055183;28;20650;-68
2023/10/30 05:35:19;;;;;;;18.55;4.47;;;32.30;32.80;;;;;;5055066;28;20224;-67
2023/10/30 05:37:46;;;;;;;12.77;3.55;;;31.90;33.40;;;;;;5054608;28;20259;-67
2023/10/30 05:40:14;;;;;;;22.55;4.20;;;31.40;34.40;;;;;;5051564;28;20218;-68
2023/10/30 05:42:41;;;;;;;12.45;2.90;;;31.10;35.00;;;;;;5055995;28;20250;-67
2023/10/30 05:45:09;;;;;;;8.32;3.00;;;30.50;35.90;;;;;;5053182;28;20211;-67
2023/10/30 05:47:36;;;;;;;13.95;3.15;;;30.20;36.70;;;;;;5056807;28;20186;-67
2023/10/30 05:50:05;;;;;;;14.35;3.70;;;29.60;37.90;;;;;;5050791;28;20194;-67
2023/10/30 05:52:32;;;;;;;13.45;3.00;;;29.30;38.70;;;;;;5052160;28;20653;-67
2023/10/30 05:54:59;;;;;;;10.60;3.40;;;29.00;39.10;;;;;;5053516;28;20179;-66
2023/10/30 05:57:27;;;;;;;14.17;3.90;;;28.80;39.90;;;;;;5051507;28;20707;-66
2023/10/30 05:59:54;;;;;;;18.53;3.43;;;28.60;40.20;;;;;;5054808;28;20229;-67
2023/10/30 06:02:21;;;;;;;8.47;3.37;;;28.50;40.40;;;;;;5055271;28;20176;-67
2023/10/30 06:04:49;;;;;;;14.27;3.80;;;28.50;40.60;;;;;;5051835;28;20188;-66
2023/10/30 06:07:16;;;;;;;10.73;3.37;;;28.40;40.70;;;;;;5052064;28;20226;-66
2023/10/30 06:09:45;;;;;;;16.97;3.57;;;28.30;41.10;;;;;;5048175;28;20241;-66
2023/10/30 06:12:12;;;;;;;13.77;3.70;;;28.10;41.30;;;;;;5051199;28;20188;-66
2023/10/30 06:14:39;;;;;;;10.77;3.37;;;28.00;41.70;;;;;;5048785;28;20750;-68
2023/10/30 06:17:09;;;;;;;11.50;3.00;;;27.90;41.60;;;;;;5049759;28;20191;-66
2023/10/30 06:19:36;;;;;;;8.10;2.37;;;27.80;42.50;;;;;;5047962;28;20185;-67
2023/10/30 06:22:03;;;;;;;14.63;3.70;;;27.80;42.90;;;;;;5061100;28;20195;-67
2023/10/30 06:24:31;;;;;;;18.70;3.93;;;27.70;43.40;;;;;;5055194;28;20513;-66
2023/10/30 06:26:58;;;;;;;20.53;5.13;;;27.60;43.50;;;;;;5056125;28;20272;-67
2023/10/30 06:29:25;;;;;;;14.87;3.63;;;27.60;44.20;;;;;;5064290;28;20188;-66
2023/10/30 06:31:53;;;;;;;14.33;3.87;;;27.50;44.50;;;;;;5075241;28;20182;-66
2023/10/30 06:34:20;;;;;;;16.77;4.33;;;27.30;44.90;;;;;;5075676;28;20622;-66
2023/10/30 06:36:47;;;;;;;13.37;3.70;;;27.30;45.10;;;;;;5066252;28;20219;-66
2023/10/30 06:39:19;;;;;;;13.03;3.63;;;27.30;45.10;;;;;;5050141;28;20196;-67
2023/10/30 06:41:55;;;;;;;12.70;3.63;;;27.20;44.90;;;;;;5054196;28;20187;-67
2023/10/30 06:44:23;;;;;;;16.53;3.77;;;27.20;45.10;;;;;;5045523;28;20191;-66
2023/10/30 06:46:50;;;;;;;14.70;4.10;;;27.20;45.30;;;;;;5052186;28;20591;-67
2023/10/30 06:49:18;;;;;;;10.23;3.50;;;27.10;45.80;;;;;;5045003;28;20176;-68
2023/10/30 06:51:46;;;;;;;12.30;3.83;;;27.10;46.10;;;;;;5053121;28;20187;-66
2023/10/30 06:54:14;;;;;;;12.67;3.87;;;27.10;46.20;;;;;;5044823;28;20267;-65
2023/10/30 06:56:41;;;;;;;14.47;4.13;;;27.00;46.40;;;;;;5050013;28;20191;-66
2023/10/30 06:59:14;;;;;;;14.53;3.77;;;26.90;46.60;;;;;;5049721;28;20262;-66
2023/10/30 07:01:47;;;;;;;18.10;4.00;;;26.90;46.70;;;;;;5059608;28;20187;-66
2023/10/30 07:04:15;;;;;;;9.80;3.87;;;26.90;46.90;;;;;;5077873;28;20180;-66
2023/10/30 07:06:44;;;;;;;20.67;4.07;;;26.90;47.30;;;;;;5059978;28;20223;-67
2023/10/30 07:09:13;;;;;;;13.23;4.10;;;27.20;47.70;;;;;;5070046;28;20172;-67
2023/10/30 07:11:41;;;;;;;14.07;3.90;;;27.30;46.90;;;;;;5065446;28;20709;-67
2023/10/30 07:14:08;;;;;;;13.97;4.80;;;27.30;47.10;;;;;;5069894;28;20201;-68
2023/10/30 07:16:36;;;;;;;16.47;5.33;;;27.30;47.40;;;;;;5067118;28;20556;-67
2023/10/30 07:19:06;;;;;;;15.13;4.60;;;27.80;46.60;;;;;;5069315;28;20723;-69
2023/10/30 07:22:02;;;;;;;18.47;5.60;;;28.00;46.10;;;;;;5059925;28;20195;-69
2023/10/30 07:24:29;;;;;;;17.87;4.90;;;27.40;47.10;;;;;;5034261;28;20239;-67
2023/10/30 07:26:58;;;;;;;13.83;5.03;;;28.10;45.20;;;;;;5052213;28;20682;-69
2023/10/30 07:29:25;;;;;;;8.90;3.67;;;28.00;40.30;;;;;;5044859;28;20551;-66
2023/10/30 07:31:52;;;;;;;7.70;3.20;;;28.60;34.20;;;;;;5035221;28;20317;-65
2023/10/30 07:34:21;;;;;;;5.83;3.10;;;29.40;25.20;;;;;;5041737;28;20242;-69
2023/10/30 07:36:49;;;;;;;7.40;3.17;;;30.40;22.40;;;;;;5041891;28;20788;-67
2023/10/30 07:39:16;;;;;;;6.57;3.37;;;31.10;21.00;;;;;;5050440;28;20662;-65
2023/10/30 07:41:44;;;;;;;6.47;3.27;;;31.30;20.80;;;;;;5058691;28;20180;-68
2023/10/30 07:44:11;;;;;;;9.98;3.75;;;31.40;20.40;;;;;;5067878;28;20179;-65
2023/10/30 07:46:39;;;;;;;7.00;3.37;;;31.60;19.90;;;;;;5055311;28;20208;-66
2023/10/30 07:49:07;;;;;;;6.00;3.20;;;31.50;20.00;;;;;;5054944;28;20184;-65
2023/10/30 07:51:35;;;;;;;6.70;2.90;;;31.40;20.30;;;;;;5053087;28;20542;-69
2023/10/30 07:54:02;;;;;;;10.57;3.20;;;31.30;20.40;;;;;;5047933;28;20180;-65
2023/10/30 07:56:29;;;;;;;6.45;2.90;;;31.30;20.00;;;;;;5039416;28;20222;-66
2023/10/30 07:58:57;;;;;;;5.00;2.77;;;31.30;20.00;;;;;;5053281;28;20186;-69
2023/10/30 08:01:25;;;;;;;4.38;2.63;;;31.30;20.20;;;;;;5053017;28;20184;-67
2023/10/30 08:03:52;;;;;;;12.88;3.00;;;31.20;20.40;;;;;;5052442;28;20184;-67
2023/10/30 08:06:24;;;;;;;11.30;3.78;;;31.20;20.30;;;;;;5053584;28;20318;-67
2023/10/30 08:08:52;;;;;;;6.38;2.78;;;31.10;20.30;;;;;;5046119;28;20183;-65
2023/10/30 08:11:20;;;;;;;4.75;2.83;;;31.10;20.50;;;;;;5060196;28;20188;-66
2023/10/30 08:13:47;;;;;;;6.07;2.80;;;30.90;20.50;;;;;;5052792;28;20225;-67
2023/10/30 08:16:17;;;;;;;7.80;3.00;;;30.90;20.30;;;;;;5052656;28;20215;-67
2023/10/30 08:18:45;;;;;;;4.53;2.40;;;30.90;20.30;;;;;;5043561;28;20179;-66
2023/10/30 08:21:13;;;;;;;4.28;2.53;;;30.80;20.40;;;;;;5053575;28;20582;-67
2023/10/30 08:23:41;;;;;;;9.57;3.20;;;30.80;20.50;;;;;;5053981;28;20191;-65
2023/10/30 08:26:25;;;;;;;;;;;;;;;;;;;;;
2023/10/30 08:29:16;;;;;;;5.87;2.60;;;30.50;20.70;;;;;;5053412;28;20684;-70
2023/10/30 08:32:18;;;;;;;6.30;2.45;;;30.40;21.00;;;;;;5044138;28;20536;-67
2023/10/30 08:35:27;;;;;;;11.17;2.60;;;30.30;21.10;;;;;;5053830;28;20658;-66
2023/10/30 08:38:06;;;;;;;8.73;2.20;;;30.10;21.30;;;;;;5045828;28;20817;-67
2023/10/30 08:40:35;;;;;;;10.17;2.73;;;30.00;21.20;;;;;;5059184;28;20177;-68
2023/10/30 08:43:12;;;;;;;5.07;2.60;;;30.00;21.50;;;;;;5061301;28;20172;-68
2023/10/30 08:45:56;;;;;;;8.18;2.63;;;29.90;21.70;;;;;;5057725;28;20245;-69
2023/10/30 08:48:52;;;;;;;6.77;2.53;;;29.80;21.70;;;;;;5062288;28;20211;-69
2023/10/30 08:55:43;;;;;;;7.53;2.90;;;29.60;22.10;;;;;;5021771;28;20211;-69
2023/10/30 08:58:51;;;;;;;8.97;2.50;;;29.50;22.20;;;;;;4931088;29;20188;-69
2023/10/30 09:04:10;;;;;;;5.20;2.60;;;29.40;22.10;;;;;;4900646;29;20196;-67
2023/10/30 09:06:37;;;;;;;5.13;2.57;;;29.30;22.20;;;;;;4970627;28;20226;-67
2023/10/30 09:09:05;;;;;;;4.67;2.63;;;29.30;22.40;;;;;;5048962;28;20189;-70
2023/10/30 09:11:36;;;;;;;6.10;3.00;;;29.10;22.50;;;;;;5050789;28;20187;-69
2023/10/30 09:14:09;;;;;;;5.20;2.50;;;29.00;22.70;;;;;;5058171;28;20202;-69
2023/10/30 09:17:11;;;;;;;3.73;2.43;;;28.90;22.70;;;;;;5061447;28;20191;-68
2023/10/30 09:20:56;;;;;;;;;;;;;;;;;;;;;
2023/10/30 09:23:41;;;;;;;3.10;2.47;;;28.60;23.40;;;;;;5007741;28;20185;-70
2023/10/30 09:29:13;;;;;;;9.00;3.30;;;28.40;23.80;;;;;;4994010;28;20707;-68
2023/10/30 09:32:02;;;;;;;10.07;3.03;;;28.30;23.60;;;;;;5009558;28;20192;-68
2023/10/30 09:38:06;;;;;;;7.37;2.77;;;28.20;24.00;;;;;;5015251;28;20226;-69
2023/10/30 09:40:34;;;;;;;7.47;2.70;;;28.00;24.30;;;;;;5037244;28;20189;-66
2023/10/30 09:43:09;;;;;;;10.67;3.20;;;27.90;24.40;;;;;;5013601;28;20197;-68
2023/10/30 09:45:50;;;;;;;6.70;3.23;;;27.90;24.70;;;;;;5011682;28;20216;-69
2023/10/30 09:48:18;;;;;;;7.20;3.40;;;27.80;24.70;;;;;;5010434;28;20196;-67
2023/10/30 09:50:46;;;;;;;4.47;3.00;;;27.70;24.90;;;;;;5007629;28;20189;-67
2023/10/30 09:53:14;;;;;;;6.77;2.83;;;27.60;24.80;;;;;;5027782;28;20266;-68
2023/10/30 09:55:42;;;;;;;6.23;2.77;;;27.60;25.20;;;;;;5059836;28;20179;-67
2023/10/30 09:58:10;;;;;;;9.43;3.03;;;27.40;25.50;;;;;;5071518;28;20512;-66
2023/10/30 10:00:38;;;;;;;5.67;3.23;;;27.30;25.60;;;;;;5076071;28;20175;-67
2023/10/30 10:03:06;;;;;;;8.47;3.53;;;27.10;25.70;;;;;;5062721;28;20612;-67
2023/10/30 10:05:33;;;;;;;6.07;3.00;;;27.00;25.90;;;;;;5054716;28;20226;-66
2023/10/30 10:08:00;;;;;;;8.53;3.13;;;26.90;26.40;;;;;;5069680;28;20172;-67
2023/10/30 10:10:28;;;;;;;10.43;3.43;;;26.80;26.70;;;;;;5075431;28;20197;-66
2023/10/30 10:12:57;;;;;;;6.00;3.00;;;26.90;26.40;;;;;;5076103;28;20512;-67
2023/10/30 10:15:25;;;;;;;6.23;2.73;;;27.00;26.00;;;;;;5060815;28;20178;-67
2023/10/30 10:17:53;;;;;;;5.47;3.10;;;27.10;26.20;;;;;;5057677;28;20180;-67
2023/10/30 10:20:22;;;;;;;3.87;2.67;;;27.10;26.30;;;;;;5066638;28;20167;-66
2023/10/30 10:22:50;;;;;;;6.53;3.07;;;27.30;25.70;;;;;;5061966;28;20245;-67
2023/10/30 10:25:18;;;;;;;7.83;2.97;;;27.30;26.10;;;;;;5067239;28;20216;-67
2023/10/30 10:27:48;;;;;;;12.13;3.17;;;27.20;26.30;;;;;;5056617;28;20584;-65
2023/10/30 10:30:18;;;;;;;5.77;3.07;;;27.20;26.70;;;;;;5066517;28;20184;-66
2023/10/30 10:32:45;;;;;;;5.37;3.03;;;27.10;26.30;;;;;;5054027;28;20226;-66
2023/10/30 10:35:12;;;;;;;5.27;2.93;;;27.10;26.50;;;;;;5065726;28;20172;-66
2023/10/30 10:37:40;;;;;;;7.27;3.50;;;27.00;26.60;;;;;;5057054;28;20218;-67
2023/10/30 10:40:08;;;;;;;7.90;3.00;;;27.10;26.30;;;;;;5074358;28;20175;-67
2023/10/30 10:42:36;;;;;;;10.50;2.93;;;27.10;26.00;;;;;;5062368;28;20186;-66
2023/10/30 10:45:04;;;;;;;5.77;3.03;;;27.10;26.40;;;;;;5041775;28;20207;-66
2023/10/30 10:47:32;;;;;;;10.27;3.80;;;27.00;26.40;;;;;;5055916;28;20181;-66
2023/10/30 10:49:59;;;;;;;6.20;3.53;;;26.90;26.20;;;;;;5056422;28;20195;-66
2023/10/30 10:52:30;;;;;;;9.17;3.33;;;26.90;26.40;;;;;;5057260;28;20215;-66
2023/10/30 10:55:07;;;;;;;6.70;3.40;;;26.70;26.70;;;;;;5054674;28;20661;-65
2023/10/30 10:57:50;;;;;;;6.33;3.73;;;26.40;27.20;;;;;;5057970;28;20226;-65
2023/10/30 11:00:20;;;;;;;6.70;3.70;;;26.20;27.40;;;;;;5060676;28;20657;-67
2023/10/30 11:02:51;;;;;;;5.43;3.30;;;26.00;27.90;;;;;;5058180;28;20517;-66
2023/10/30 11:05:20;;;;;;;8.37;3.57;;;25.80;28.30;;;;;;5054175;28;20212;-65
2023/10/30 11:08:11;;;;;;;6.43;3.47;;;25.80;29.40;;;;;;5060129;28;20195;-65
2023/10/30 11:10:49;;;;;;;4.43;3.10;;;25.60;29.70;;;;;;5059570;28;20184;-66
2023/10/30 11:13:17;;;;;;;8.40;3.60;;;25.50;29.40;;;;;;5067281;28;20625;-66
2023/10/30 11:16:13;;;;;;;7.90;3.53;;;25.40;29.70;;;;;;5067983;28;20183;-67
2023/10/30 11:18:40;;;;;;;9.67;3.57;;;25.30;29.60;;;;;;5059372;28;20183;-66
2023/10/30 11:21:09;;;;;;;6.43;3.63;;;25.30;28.80;;;;;;5074340;28;20175;-67
2023/10/30 11:23:47;;;;;;;7.97;3.40;;;25.30;29.10;;;;;;5068925;28;20175;-65
2023/10/30 11:26:36;;;;;;;5.60;3.17;;;25.30;30.00;;;;;;5069817;28;20283;-68
2023/10/30 11:29:12;;;;;;;5.67;3.60;;;25.20;29.80;;;;;;5063741;28;20167;-68
2023/10/30 11:32:03;;;;;;;8.70;3.80;;;25.00;31.20;;;;;;5073841;28;20171;-65
2023/10/30 11:34:37;;;;;;;9.33;3.60;;;24.80;32.20;;;;;;5055461;28;20207;-66
2023/10/30 11:37:06;;;;;;;5.63;3.53;;;24.70;32.80;;;;;;5069008;28;20302;-65
2023/10/30 11:39:36;;;;;;;9.33;3.50;;;24.50;33.40;;;;;;5064105;28;20179;-66
2023/10/30 11:42:04;;;;;;;5.87;3.33;;;24.40;33.60;;;;;;5074407;28;20533;-66
2023/10/30 11:44:33;;;;;;;10.27;3.90;;;24.30;33.00;;;;;;5071075;28;20274;-67
2023/10/30 11:47:00;;;;;;;8.23;3.33;;;24.30;33.50;;;;;;5071945;28;20207;-66
2023/10/30 11:49:32;;;;;;;9.33;3.93;;;24.20;33.90;;;;;;5063234;28;20183;-66
2023/10/30 11:52:00;;;;;;;10.23;3.90;;;24.10;33.90;;;;;;5067545;28;20614;-65
2023/10/30 11:54:34;;;;;;;4.43;3.77;;;24.10;33.90;;;;;;5064023;28;20541;-66
2023/10/30 11:57:05;;;;;;;8.97;3.67;;;24.00;34.50;;;;;;5062079;28;20248;-66
2023/10/30 11:59:32;;;;;;;9.77;4.23;;;23.90;35.40;;;;;;5065749;28;20230;-66
2023/10/30 12:02:01;;;;;;;6.53;4.10;;;23.80;35.40;;;;;;5063311;28;20182;-66
2023/10/30 12:04:28;;;;;;;8.40;3.87;;;23.70;35.60;;;;;;5061823;28;20183;-65
2023/10/30 12:06:56;;;;;;;15.10;4.37;;;23.70;36.00;;;;;;5074382;28;20769;-66
2023/10/30 12:09:25;;;;;;;10.40;4.07;;;23.70;36.10;;;;;;5066325;28;20183;-66
2023/10/30 12:11:55;;;;;;;10.97;3.80;;;23.60;36.70;;;;;;5065316;28;20235;-67
2023/10/30 12:14:23;;;;;;;8.87;4.03;;;23.60;37.40;;;;;;5070190;28;20194;-66
2023/10/30 12:16:51;;;;;;;5.33;3.53;;;23.40;38.10;;;;;;5073022;28;20176;-67
2023/10/30 12:19:22;;;;;;;13.70;4.13;;;23.30;39.80;;;;;;5068777;28;20189;-66
2023/10/30 12:21:51;;;;;;;7.63;4.20;;;23.30;38.40;;;;;;5056189;28;20187;-66
2023/10/30 12:24:19;;;;;;;10.80;4.57;;;23.30;38.90;;;;;;5072228;28;20175;-66
2023/10/30 12:26:47;;;;;;;9.83;3.97;;;23.20;39.40;;;;;;5057618;28;20234;-66
2023/10/30 12:29:28;;;;;;;13.00;4.47;;;23.00;39.80;;;;;;5072034;28;20242;-65
2023/10/30 12:32:06;;;;;;;9.77;4.30;;;23.10;40.90;;;;;;5062164;28;20194;-66
2023/10/30 12:34:37;;;;;;;9.77;4.53;;;23.00;41.40;;;;;;5064365;28;20180;-65
2023/10/30 12:37:24;;;;;;;11.43;4.27;;;23.00;41.90;;;;;;5056875;28;20236;-67
2023/10/30 12:40:08;;;;;;;15.87;5.07;;;22.90;42.30;;;;;;5057987;28;20187;-65
2023/10/30 12:42:36;;;;;;;16.17;4.40;;;22.80;42.80;;;;;;5095132;28;20224;-65
2023/10/30 12:45:23;;;;;;;12.33;4.57;;;22.80;43.50;;;;;;5061959;28;20670;-66
2023/10/30 12:47:51;;;;;;;17.07;4.60;;;22.70;43.70;;;;;;5063836;28;20255;-67
2023/10/30 12:50:19;;;;;;;21.27;5.00;;;22.60;44.10;;;;;;5063988;28;20206;-66
2023/10/30 12:52:46;;;;;;;19.47;4.80;;;22.40;43.90;;;;;;5062453;28;20183;-66
2023/10/30 12:55:14;;;;;;;14.63;4.80;;;22.40;43.80;;;;;;5052551;28;20645;-67
2023/10/30 12:57:41;;;;;;;15.33;4.47;;;22.30;43.70;;;;;;5055751;28;20184;-67
2023/10/30 13:00:10;;;;;;;15.20;5.07;;;22.20;43.20;;;;;;5052107;28;20183;-66
2023/10/30 13:02:38;;;;;;;18.10;4.77;;;22.20;43.20;;;;;;5051309;28;20705;-67
2023/10/30 13:05:05;;;;;;;14.50;4.50;;;22.20;44.40;;;;;;5049106;28;20824;-68
2023/10/30 13:07:33;;;;;;;13.53;5.13;;;22.20;43.80;;;;;;5050993;28;20865;-66
2023/10/30 13:10:00;;;;;;;9.97;4.37;;;22.20;44.50;;;;;;5051619;28;20241;-66
2023/10/30 13:12:28;;;;;;;20.30;4.93;;;22.20;44.60;;;;;;5051716;28;20188;-67